sensor_id;sensor_type;location;lat;lon;timestamp;P1;durP1;ratioP1;P2;durP2;ratioP2
15616;SDS011;7908;51.688;7.130;2023-02-22T00:01:00;64.93;;;35.47;;
15616;SDS011;7908;51.688;7.130;2023-02-22T00:03:47;66.57;;;35.37;;
15616;SDS011;7908;51.688;7.130;2023-02-22T00:06:19;71.10;;;36.07;;
15616;SDS011;7908;51.688;7.130;2023-02-22T00:08:51;66.97;;;34.47;;
15616;SDS011;7908;51.688;7.130;2023-02-22T00:11:21;65.57;;;34.30;;
15616;SDS011;7908;51.688;7.130;2023-02-22T00:13:50;60.77;;;33.73;;
15616;SDS011;7908;51.688;7.130;2023-02-22T00:16:23;63.63;;;34.40;;
15616;SDS011;7908;51.688;7.130;2023-02-22T00:18:52;60.20;;;33.50;;
15616;SDS011;7908;51.688;7.130;2023-02-22T00:21:23;63.03;;;32.50;;
15616;SDS011;7908;51.688;7.130;2023-02-22T00:23:51;62.23;;;33.90;;
15616;SDS011;7908;51.688;7.130;2023-02-22T00:26:21;61.50;;;32.13;;
15616;SDS011;7908;51.688;7.130;2023-02-22T00:28:51;62.50;;;32.40;;
15616;SDS011;7908;51.688;7.130;2023-02-22T00:31:21;66.83;;;33.43;;
15616;SDS011;7908;51.688;7.130;2023-02-22T00:33:50;60.73;;;31.33;;
15616;SDS011;7908;51.688;7.130;2023-02-22T00:36:19;58.93;;;32.23;;
15616;SDS011;7908;51.688;7.130;2023-02-22T00:38:49;58.03;;;31.27;;
15616;SDS011;7908;51.688;7.130;2023-02-22T00:41:18;63.73;;;32.43;;
15616;SDS011;7908;51.688;7.130;2023-02-22T00:43:46;64.10;;;32.70;;
15616;SDS011;7908;51.688;7.130;2023-02-22T00:46:15;63.60;;;31.77;;
15616;SDS011;7908;51.688;7.130;2023-02-22T00:48:44;62.40;;;31.23;;
15616;SDS011;7908;51.688;7.130;2023-02-22T00:51:13;62.40;;;31.03;;
15616;SDS011;7908;51.688;7.130;2023-02-22T00:53:42;62.90;;;31.17;;
15616;SDS011;7908;51.688;7.130;2023-02-22T00:56:12;67.23;;;34.77;;
15616;SDS011;7908;51.688;7.130;2023-02-22T00:58:41;71.23;;;36.60;;
15616;SDS011;7908;51.688;7.130;2023-02-22T01:01:10;73.07;;;37.97;;
15616;SDS011;7908;51.688;7.130;2023-02-22T01:03:38;74.53;;;37.63;;
15616;SDS011;7908;51.688;7.130;2023-02-22T01:06:07;78.87;;;37.53;;
15616;SDS011;7908;51.688;7.130;2023-02-22T01:08:36;71.90;;;34.17;;
15616;SDS011;7908;51.688;7.130;2023-02-22T01:11:04;70.63;;;34.27;;
15616;SDS011;7908;51.688;7.130;2023-02-22T01:13:34;75.53;;;36.43;;
15616;SDS011;7908;51.688;7.130;2023-02-22T01:16:03;73.73;;;34.53;;
15616;SDS011;7908;51.688;7.130;2023-02-22T01:18:33;80.60;;;36.10;;
15616;SDS011;7908;51.688;7.130;2023-02-22T01:21:03;91.83;;;36.93;;
15616;SDS011;7908;51.688;7.130;2023-02-22T01:23:32;82.80;;;34.87;;
15616;SDS011;7908;51.688;7.130;2023-02-22T01:26:00;85.73;;;37.47;;
15616;SDS011;7908;51.688;7.130;2023-02-22T01:28:31;85.83;;;36.77;;
15616;SDS011;7908;51.688;7.130;2023-02-22T01:31:04;86.07;;;37.10;;
15616;SDS011;7908;51.688;7.130;2023-02-22T01:33:32;84.20;;;36.87;;
15616;SDS011;7908;51.688;7.130;2023-02-22T01:36:01;82.93;;;36.20;;
15616;SDS011;7908;51.688;7.130;2023-02-22T01:38:30;90.27;;;37.90;;
15616;SDS011;7908;51.688;7.130;2023-02-22T01:40:59;78.23;;;35.40;;
15616;SDS011;7908;51.688;7.130;2023-02-22T01:43:29;93.60;;;38.27;;
15616;SDS011;7908;51.688;7.130;2023-02-22T01:45:59;87.87;;;37.17;;
15616;SDS011;7908;51.688;7.130;2023-02-22T01:48:32;84.63;;;35.60;;
15616;SDS011;7908;51.688;7.130;2023-02-22T01:51:06;87.37;;;36.77;;
15616;SDS011;7908;51.688;7.130;2023-02-22T01:53:40;81.90;;;36.03;;
15616;SDS011;7908;51.688;7.130;2023-02-22T01:56:12;81.57;;;35.60;;
15616;SDS011;7908;51.688;7.130;2023-02-22T01:58:43;93.43;;;37.07;;
15616;SDS011;7908;51.688;7.130;2023-02-22T02:01:14;84.83;;;35.73;;
15616;SDS011;7908;51.688;7.130;2023-02-22T02:03:46;81.97;;;35.67;;
15616;SDS011;7908;51.688;7.130;2023-02-22T02:06:16;88.23;;;35.73;;
15616;SDS011;7908;51.688;7.130;2023-02-22T02:08:50;100.60;;;41.07;;
15616;SDS011;7908;51.688;7.130;2023-02-22T02:11:24;102.43;;;41.80;;
15616;SDS011;7908;51.688;7.130;2023-02-22T02:13:54;96.73;;;39.73;;
15616;SDS011;7908;51.688;7.130;2023-02-22T02:16:25;103.43;;;40.53;;
15616;SDS011;7908;51.688;7.130;2023-02-22T02:19:01;103.77;;;41.03;;
15616;SDS011;7908;51.688;7.130;2023-02-22T02:21:38;100.00;;;40.70;;
15616;SDS011;7908;51.688;7.130;2023-02-22T02:24:32;105.07;;;40.47;;
15616;SDS011;7908;51.688;7.130;2023-02-22T02:27:24;94.63;;;39.20;;
15616;SDS011;7908;51.688;7.130;2023-02-22T02:30:23;99.40;;;40.67;;
15616;SDS011;7908;51.688;7.130;2023-02-22T02:33:16;98.83;;;40.47;;
15616;SDS011;7908;51.688;7.130;2023-02-22T02:35:52;93.63;;;37.67;;
15616;SDS011;7908;51.688;7.130;2023-02-22T02:38:29;98.17;;;40.43;;
15616;SDS011;7908;51.688;7.130;2023-02-22T02:41:05;90.70;;;38.13;;
15616;SDS011;7908;51.688;7.130;2023-02-22T02:43:39;89.83;;;37.87;;
15616;SDS011;7908;51.688;7.130;2023-02-22T02:46:13;79.80;;;35.00;;
15616;SDS011;7908;51.688;7.130;2023-02-22T02:48:50;77.50;;;34.07;;
15616;SDS011;7908;51.688;7.130;2023-02-22T02:51:22;87.63;;;36.03;;
15616;SDS011;7908;51.688;7.130;2023-02-22T02:53:55;73.43;;;33.70;;
15616;SDS011;7908;51.688;7.130;2023-02-22T02:56:25;82.17;;;35.47;;
15616;SDS011;7908;51.688;7.130;2023-02-22T02:58:54;83.83;;;34.23;;
15616;SDS011;7908;51.688;7.130;2023-02-22T03:01:28;102.10;;;39.23;;
15616;SDS011;7908;51.688;7.130;2023-02-22T03:04:22;121.57;;;41.60;;
15616;SDS011;7908;51.688;7.130;2023-02-22T03:07:25;129.40;;;42.30;;
15616;SDS011;7908;51.688;7.130;2023-02-22T03:10:09;120.27;;;42.33;;
15616;SDS011;7908;51.688;7.130;2023-02-22T03:12:50;190.43;;;43.43;;
15616;SDS011;7908;51.688;7.130;2023-02-22T03:15:31;198.10;;;43.93;;
15616;SDS011;7908;51.688;7.130;2023-02-22T03:18:06;193.90;;;42.97;;
15616;SDS011;7908;51.688;7.130;2023-02-22T03:20:45;239.60;;;44.83;;
15616;SDS011;7908;51.688;7.130;2023-02-22T03:23:21;237.43;;;45.10;;
15616;SDS011;7908;51.688;7.130;2023-02-22T03:25:56;112.80;;;38.37;;
15616;SDS011;7908;51.688;7.130;2023-02-22T03:28:28;139.93;;;38.77;;
15616;SDS011;7908;51.688;7.130;2023-02-22T03:30:59;262.80;;;41.47;;
15616;SDS011;7908;51.688;7.130;2023-02-22T03:33:32;131.87;;;40.00;;
15616;SDS011;7908;51.688;7.130;2023-02-22T03:36:12;245.83;;;42.50;;
15616;SDS011;7908;51.688;7.130;2023-02-22T03:38:43;131.17;;;39.63;;
15616;SDS011;7908;51.688;7.130;2023-02-22T03:41:13;126.23;;;40.37;;
15616;SDS011;7908;51.688;7.130;2023-02-22T03:43:49;158.13;;;39.07;;
15616;SDS011;7908;51.688;7.130;2023-02-22T03:46:22;118.23;;;41.10;;
15616;SDS011;7908;51.688;7.130;2023-02-22T03:48:52;95.87;;;34.03;;
15616;SDS011;7908;51.688;7.130;2023-02-22T03:51:27;217.97;;;38.83;;
15616;SDS011;7908;51.688;7.130;2023-02-22T03:53:55;132.07;;;37.00;;
15616;SDS011;7908;51.688;7.130;2023-02-22T03:56:25;153.63;;;35.33;;
15616;SDS011;7908;51.688;7.130;2023-02-22T03:59:01;130.47;;;36.60;;
15616;SDS011;7908;51.688;7.130;2023-02-22T04:01:32;154.33;;;36.53;;
15616;SDS011;7908;51.688;7.130;2023-02-22T04:04:00;167.67;;;36.77;;
15616;SDS011;7908;51.688;7.130;2023-02-22T04:06:30;233.53;;;38.73;;
15616;SDS011;7908;51.688;7.130;2023-02-22T04:08:59;174.60;;;38.00;;
15616;SDS011;7908;51.688;7.130;2023-02-22T04:11:28;128.50;;;35.57;;
15616;SDS011;7908;51.688;7.130;2023-02-22T04:13:56;109.90;;;32.93;;
15616;SDS011;7908;51.688;7.130;2023-02-22T04:16:26;99.67;;;32.40;;
15616;SDS011;7908;51.688;7.130;2023-02-22T04:18:54;123.13;;;30.90;;
15616;SDS011;7908;51.688;7.130;2023-02-22T04:21:23;102.43;;;31.50;;
15616;SDS011;7908;51.688;7.130;2023-02-22T04:23:53;118.83;;;32.20;;
15616;SDS011;7908;51.688;7.130;2023-02-22T04:26:22;129.67;;;32.53;;
15616;SDS011;7908;51.688;7.130;2023-02-22T04:28:50;134.63;;;34.10;;
15616;SDS011;7908;51.688;7.130;2023-02-22T04:31:19;179.27;;;34.80;;
15616;SDS011;7908;51.688;7.130;2023-02-22T04:33:48;202.10;;;36.07;;
15616;SDS011;7908;51.688;7.130;2023-02-22T04:36:16;173.23;;;33.30;;
15616;SDS011;7908;51.688;7.130;2023-02-22T04:38:47;117.83;;;32.17;;
15616;SDS011;7908;51.688;7.130;2023-02-22T04:41:17;77.47;;;31.43;;
15616;SDS011;7908;51.688;7.130;2023-02-22T04:43:46;136.10;;;32.70;;
15616;SDS011;7908;51.688;7.130;2023-02-22T04:46:15;195.57;;;36.60;;
15616;SDS011;7908;51.688;7.130;2023-02-22T04:48:44;293.40;;;38.10;;
15616;SDS011;7908;51.688;7.130;2023-02-22T04:51:12;77.53;;;32.53;;
15616;SDS011;7908;51.688;7.130;2023-02-22T04:53:41;88.20;;;37.07;;
15616;SDS011;7908;51.688;7.130;2023-02-22T04:56:10;110.67;;;36.00;;
15616;SDS011;7908;51.688;7.130;2023-02-22T04:58:40;103.60;;;35.73;;
15616;SDS011;7908;51.688;7.130;2023-02-22T05:01:09;103.50;;;33.97;;
15616;SDS011;7908;51.688;7.130;2023-02-22T05:03:37;81.27;;;34.77;;
15616;SDS011;7908;51.688;7.130;2023-02-22T05:06:06;79.20;;;33.87;;
15616;SDS011;7908;51.688;7.130;2023-02-22T05:08:35;82.50;;;36.60;;
15616;SDS011;7908;51.688;7.130;2023-02-22T05:11:04;133.60;;;50.53;;
15616;SDS011;7908;51.688;7.130;2023-02-22T05:13:32;71.17;;;31.43;;
15616;SDS011;7908;51.688;7.130;2023-02-22T05:16:03;208.87;;;40.63;;
15616;SDS011;7908;51.688;7.130;2023-02-22T05:18:32;93.20;;;35.77;;
15616;SDS011;7908;51.688;7.130;2023-02-22T05:21:00;103.77;;;36.53;;
15616;SDS011;7908;51.688;7.130;2023-02-22T05:23:29;84.63;;;33.07;;
15616;SDS011;7908;51.688;7.130;2023-02-22T05:25:58;84.67;;;36.13;;
15616;SDS011;7908;51.688;7.130;2023-02-22T05:28:27;87.67;;;36.97;;
15616;SDS011;7908;51.688;7.130;2023-02-22T05:30:55;89.67;;;33.40;;
15616;SDS011;7908;51.688;7.130;2023-02-22T05:33:26;137.87;;;34.93;;
15616;SDS011;7908;51.688;7.130;2023-02-22T05:35:54;117.97;;;36.77;;
15616;SDS011;7908;51.688;7.130;2023-02-22T05:38:23;106.80;;;33.63;;
15616;SDS011;7908;51.688;7.130;2023-02-22T05:40:51;80.73;;;32.50;;
15616;SDS011;7908;51.688;7.130;2023-02-22T05:43:20;98.70;;;33.43;;
15616;SDS011;7908;51.688;7.130;2023-02-22T05:45:49;77.33;;;32.70;;
15616;SDS011;7908;51.688;7.130;2023-02-22T05:48:17;71.37;;;30.53;;
15616;SDS011;7908;51.688;7.130;2023-02-22T05:50:49;157.60;;;34.97;;
15616;SDS011;7908;51.688;7.130;2023-02-22T05:53:18;88.67;;;31.90;;
15616;SDS011;7908;51.688;7.130;2023-02-22T05:55:49;86.97;;;31.23;;
15616;SDS011;7908;51.688;7.130;2023-02-22T05:58:17;79.17;;;30.53;;
15616;SDS011;7908;51.688;7.130;2023-02-22T06:00:46;80.80;;;31.70;;
15616;SDS011;7908;51.688;7.130;2023-02-22T06:03:15;62.13;;;27.73;;
15616;SDS011;7908;51.688;7.130;2023-02-22T06:05:43;84.13;;;30.63;;
15616;SDS011;7908;51.688;7.130;2023-02-22T06:08:14;70.33;;;30.30;;
15616;SDS011;7908;51.688;7.130;2023-02-22T06:10:43;84.63;;;30.13;;
15616;SDS011;7908;51.688;7.130;2023-02-22T06:13:12;73.03;;;30.03;;
15616;SDS011;7908;51.688;7.130;2023-02-22T06:15:40;93.27;;;32.03;;
15616;SDS011;7908;51.688;7.130;2023-02-22T06:18:09;70.43;;;29.50;;
15616;SDS011;7908;51.688;7.130;2023-02-22T06:20:38;87.17;;;29.20;;
15616;SDS011;7908;51.688;7.130;2023-02-22T06:23:07;106.77;;;31.00;;
15616;SDS011;7908;51.688;7.130;2023-02-22T06:25:37;71.93;;;29.07;;
15616;SDS011;7908;51.688;7.130;2023-02-22T06:28:05;91.07;;;31.67;;
15616;SDS011;7908;51.688;7.130;2023-02-22T06:30:34;68.10;;;28.17;;
15616;SDS011;7908;51.688;7.130;2023-02-22T06:33:03;72.37;;;28.63;;
15616;SDS011;7908;51.688;7.130;2023-02-22T06:35:31;59.73;;;27.20;;
15616;SDS011;7908;51.688;7.130;2023-02-22T06:38:00;69.77;;;28.13;;
15616;SDS011;7908;51.688;7.130;2023-02-22T06:40:28;82.63;;;30.27;;
15616;SDS011;7908;51.688;7.130;2023-02-22T06:42:58;89.80;;;32.17;;
15616;SDS011;7908;51.688;7.130;2023-02-22T06:45:27;61.07;;;28.60;;
15616;SDS011;7908;51.688;7.130;2023-02-22T06:47:55;62.00;;;28.70;;
15616;SDS011;7908;51.688;7.130;2023-02-22T06:50:25;68.70;;;29.13;;
15616;SDS011;7908;51.688;7.130;2023-02-22T06:52:55;61.13;;;28.47;;
15616;SDS011;7908;51.688;7.130;2023-02-22T06:55:24;65.73;;;28.20;;
15616;SDS011;7908;51.688;7.130;2023-02-22T06:57:54;83.53;;;31.73;;
15616;SDS011;7908;51.688;7.130;2023-02-22T07:00:24;63.73;;;28.33;;
15616;SDS011;7908;51.688;7.130;2023-02-22T07:02:55;73.43;;;30.40;;
15616;SDS011;7908;51.688;7.130;2023-02-22T07:05:24;63.53;;;28.83;;
15616;SDS011;7908;51.688;7.130;2023-02-22T07:07:54;54.50;;;27.23;;
15616;SDS011;7908;51.688;7.130;2023-02-22T07:10:28;47.90;;;25.53;;
15616;SDS011;7908;51.688;7.130;2023-02-22T07:12:58;57.20;;;26.97;;
15616;SDS011;7908;51.688;7.130;2023-02-22T07:15:31;55.80;;;26.83;;
15616;SDS011;7908;51.688;7.130;2023-02-22T07:18:01;55.83;;;26.30;;
15616;SDS011;7908;51.688;7.130;2023-02-22T07:20:31;71.03;;;29.57;;
15616;SDS011;7908;51.688;7.130;2023-02-22T07:23:00;63.07;;;28.50;;
15616;SDS011;7908;51.688;7.130;2023-02-22T07:25:30;58.40;;;27.33;;
15616;SDS011;7908;51.688;7.130;2023-02-22T07:27:58;67.17;;;28.50;;
15616;SDS011;7908;51.688;7.130;2023-02-22T07:30:28;61.60;;;28.43;;
15616;SDS011;7908;51.688;7.130;2023-02-22T07:33:00;56.90;;;26.83;;
15616;SDS011;7908;51.688;7.130;2023-02-22T07:35:32;50.40;;;26.23;;
15616;SDS011;7908;51.688;7.130;2023-02-22T07:38:02;55.90;;;27.30;;
15616;SDS011;7908;51.688;7.130;2023-02-22T07:40:34;59.17;;;28.03;;
15616;SDS011;7908;51.688;7.130;2023-02-22T07:43:03;50.67;;;24.87;;
15616;SDS011;7908;51.688;7.130;2023-02-22T07:45:38;53.73;;;25.90;;
15616;SDS011;7908;51.688;7.130;2023-02-22T07:48:07;52.97;;;26.30;;
15616;SDS011;7908;51.688;7.130;2023-02-22T07:50:38;54.17;;;26.37;;
15616;SDS011;7908;51.688;7.130;2023-02-22T07:53:09;48.27;;;25.90;;
15616;SDS011;7908;51.688;7.130;2023-02-22T07:55:40;49.20;;;25.03;;
15616;SDS011;7908;51.688;7.130;2023-02-22T07:58:12;40.00;;;23.83;;
15616;SDS011;7908;51.688;7.130;2023-02-22T08:00:43;41.17;;;23.10;;
15616;SDS011;7908;51.688;7.130;2023-02-22T08:03:14;42.53;;;24.00;;
15616;SDS011;7908;51.688;7.130;2023-02-22T08:05:45;37.63;;;22.97;;
15616;SDS011;7908;51.688;7.130;2023-02-22T08:08:15;40.27;;;24.37;;
15616;SDS011;7908;51.688;7.130;2023-02-22T08:10:46;37.00;;;21.63;;
15616;SDS011;7908;51.688;7.130;2023-02-22T08:13:17;33.83;;;22.00;;
15616;SDS011;7908;51.688;7.130;2023-02-22T08:15:49;38.70;;;23.30;;
15616;SDS011;7908;51.688;7.130;2023-02-22T08:18:19;40.43;;;23.63;;
15616;SDS011;7908;51.688;7.130;2023-02-22T08:20:49;40.27;;;23.70;;
15616;SDS011;7908;51.688;7.130;2023-02-22T08:23:19;62.17;;;25.93;;
15616;SDS011;7908;51.688;7.130;2023-02-22T08:25:51;36.43;;;21.23;;
15616;SDS011;7908;51.688;7.130;2023-02-22T08:28:21;37.07;;;22.03;;
15616;SDS011;7908;51.688;7.130;2023-02-22T08:30:52;35.73;;;21.80;;
15616;SDS011;7908;51.688;7.130;2023-02-22T08:33:21;31.83;;;21.30;;
15616;SDS011;7908;51.688;7.130;2023-02-22T08:35:50;38.07;;;21.30;;
15616;SDS011;7908;51.688;7.130;2023-02-22T08:38:20;36.27;;;21.93;;
15616;SDS011;7908;51.688;7.130;2023-02-22T08:40:51;31.77;;;21.60;;
15616;SDS011;7908;51.688;7.130;2023-02-22T08:43:20;30.80;;;20.50;;
15616;SDS011;7908;51.688;7.130;2023-02-22T08:45:49;32.30;;;21.93;;
15616;SDS011;7908;51.688;7.130;2023-02-22T08:48:22;27.87;;;19.67;;
15616;SDS011;7908;51.688;7.130;2023-02-22T08:50:50;29.70;;;21.50;;
15616;SDS011;7908;51.688;7.130;2023-02-22T08:53:22;30.07;;;20.63;;
15616;SDS011;7908;51.688;7.130;2023-02-22T08:55:51;26.07;;;19.60;;
15616;SDS011;7908;51.688;7.130;2023-02-22T08:58:20;27.60;;;20.60;;
15616;SDS011;7908;51.688;7.130;2023-02-22T09:00:51;28.77;;;20.00;;
15616;SDS011;7908;51.688;7.130;2023-02-22T09:03:21;26.80;;;19.80;;
15616;SDS011;7908;51.688;7.130;2023-02-22T09:05:50;24.77;;;19.00;;
15616;SDS011;7908;51.688;7.130;2023-02-22T09:08:19;26.83;;;18.73;;
15616;SDS011;7908;51.688;7.130;2023-02-22T09:10:48;24.90;;;19.07;;
15616;SDS011;7908;51.688;7.130;2023-02-22T09:13:17;25.47;;;18.27;;
15616;SDS011;7908;51.688;7.130;2023-02-22T09:15:46;23.43;;;18.40;;
15616;SDS011;7908;51.688;7.130;2023-02-22T09:18:14;23.50;;;18.50;;
15616;SDS011;7908;51.688;7.130;2023-02-22T09:20:46;24.53;;;18.60;;
15616;SDS011;7908;51.688;7.130;2023-02-22T09:23:15;27.60;;;19.23;;
15616;SDS011;7908;51.688;7.130;2023-02-22T09:25:46;25.27;;;18.53;;
15616;SDS011;7908;51.688;7.130;2023-02-22T09:28:14;26.37;;;19.87;;
15616;SDS011;7908;51.688;7.130;2023-02-22T09:30:44;25.73;;;19.90;;
15616;SDS011;7908;51.688;7.130;2023-02-22T09:33:13;24.80;;;19.23;;
15616;SDS011;7908;51.688;7.130;2023-02-22T09:35:46;23.63;;;19.23;;
15616;SDS011;7908;51.688;7.130;2023-02-22T09:38:16;23.47;;;18.40;;
15616;SDS011;7908;51.688;7.130;2023-02-22T09:40:48;26.63;;;19.37;;
15616;SDS011;7908;51.688;7.130;2023-02-22T09:43:22;24.07;;;18.73;;
15616;SDS011;7908;51.688;7.130;2023-02-22T09:48:55;25.43;;;18.87;;
15616;SDS011;7908;51.688;7.130;2023-02-22T09:51:30;22.33;;;18.00;;
15616;SDS011;7908;51.688;7.130;2023-02-22T09:54:05;26.10;;;19.60;;
15616;SDS011;7908;51.688;7.130;2023-02-22T09:56:43;22.80;;;17.80;;
15616;SDS011;7908;51.688;7.130;2023-02-22T09:59:14;23.70;;;19.20;;
15616;SDS011;7908;51.688;7.130;2023-02-22T10:01:47;21.30;;;18.10;;
15616;SDS011;7908;51.688;7.130;2023-02-22T10:04:21;22.33;;;18.67;;
15616;SDS011;7908;51.688;7.130;2023-02-22T10:06:59;23.40;;;18.30;;
15616;SDS011;7908;51.688;7.130;2023-02-22T10:09:33;25.37;;;18.23;;
15616;SDS011;7908;51.688;7.130;2023-02-22T10:12:09;21.57;;;17.43;;
15616;SDS011;7908;51.688;7.130;2023-02-22T10:14:51;23.13;;;17.87;;
15616;SDS011;7908;51.688;7.130;2023-02-22T10:17:50;25.83;;;19.03;;
15616;SDS011;7908;51.688;7.130;2023-02-22T10:20:30;31.83;;;25.60;;
15616;SDS011;7908;51.688;7.130;2023-02-22T10:23:10;28.00;;;24.33;;
15616;SDS011;7908;51.688;7.130;2023-02-22T10:25:47;35.30;;;26.73;;
15616;SDS011;7908;51.688;7.130;2023-02-22T10:28:20;28.23;;;21.57;;
15616;SDS011;7908;51.688;7.130;2023-02-22T10:30:52;19.03;;;15.57;;
15616;SDS011;7908;51.688;7.130;2023-02-22T10:33:25;20.13;;;15.83;;
15616;SDS011;7908;51.688;7.130;2023-02-22T10:35:57;19.67;;;15.30;;
15616;SDS011;7908;51.688;7.130;2023-02-22T10:38:29;18.57;;;15.70;;
15616;SDS011;7908;51.688;7.130;2023-02-22T10:41:00;20.83;;;16.60;;
15616;SDS011;7908;51.688;7.130;2023-02-22T10:43:43;20.67;;;16.20;;
15616;SDS011;7908;51.688;7.130;2023-02-22T10:46:14;19.60;;;15.00;;
15616;SDS011;7908;51.688;7.130;2023-02-22T10:48:48;21.07;;;16.33;;
15616;SDS011;7908;51.688;7.130;2023-02-22T10:51:19;19.13;;;15.77;;
15616;SDS011;7908;51.688;7.130;2023-02-22T10:53:55;21.37;;;17.17;;
15616;SDS011;7908;51.688;7.130;2023-02-22T10:56:29;19.80;;;15.93;;
15616;SDS011;7908;51.688;7.130;2023-02-22T10:58:59;22.37;;;17.23;;
15616;SDS011;7908;51.688;7.130;2023-02-22T11:01:33;20.13;;;16.57;;
15616;SDS011;7908;51.688;7.130;2023-02-22T11:04:09;21.80;;;16.90;;
15616;SDS011;7908;51.688;7.130;2023-02-22T11:06:41;19.60;;;16.23;;
15616;SDS011;7908;51.688;7.130;2023-02-22T11:09:14;20.17;;;16.27;;
15616;SDS011;7908;51.688;7.130;2023-02-22T11:11:45;19.13;;;15.53;;
15616;SDS011;7908;51.688;7.130;2023-02-22T11:14:23;20.00;;;16.73;;
15616;SDS011;7908;51.688;7.130;2023-02-22T11:16:53;20.47;;;16.33;;
15616;SDS011;7908;51.688;7.130;2023-02-22T11:19:24;20.07;;;16.17;;
15616;SDS011;7908;51.688;7.130;2023-02-22T11:21:55;19.13;;;15.30;;
15616;SDS011;7908;51.688;7.130;2023-02-22T11:24:27;16.97;;;15.00;;
15616;SDS011;7908;51.688;7.130;2023-02-22T11:27:19;20.70;;;15.80;;
15616;SDS011;7908;51.688;7.130;2023-02-22T11:29:54;20.80;;;15.37;;
15616;SDS011;7908;51.688;7.130;2023-02-22T11:32:33;17.47;;;13.60;;
15616;SDS011;7908;51.688;7.130;2023-02-22T11:35:16;21.73;;;16.20;;
15616;SDS011;7908;51.688;7.130;2023-02-22T11:37:46;18.80;;;15.13;;
15616;SDS011;7908;51.688;7.130;2023-02-22T11:40:18;18.10;;;14.40;;
15616;SDS011;7908;51.688;7.130;2023-02-22T11:42:49;19.87;;;12.87;;
15616;SDS011;7908;51.688;7.130;2023-02-22T11:45:37;17.23;;;13.17;;
15616;SDS011;7908;51.688;7.130;2023-02-22T11:48:25;15.73;;;12.70;;
15616;SDS011;7908;51.688;7.130;2023-02-22T11:51:03;19.37;;;14.23;;
15616;SDS011;7908;51.688;7.130;2023-02-22T11:53:46;23.83;;;16.73;;
15616;SDS011;7908;51.688;7.130;2023-02-22T11:56:41;20.03;;;15.00;;
15616;SDS011;7908;51.688;7.130;2023-02-22T11:59:17;21.70;;;16.43;;
15616;SDS011;7908;51.688;7.130;2023-02-22T12:01:55;17.73;;;12.73;;
15616;SDS011;7908;51.688;7.130;2023-02-22T12:04:33;21.67;;;15.20;;
15616;SDS011;7908;51.688;7.130;2023-02-22T12:07:15;26.20;;;17.60;;
15616;SDS011;7908;51.688;7.130;2023-02-22T12:09:55;19.80;;;13.30;;
15616;SDS011;7908;51.688;7.130;2023-02-22T12:12:39;21.30;;;15.37;;
15616;SDS011;7908;51.688;7.130;2023-02-22T12:15:17;18.50;;;13.40;;
15616;SDS011;7908;51.688;7.130;2023-02-22T12:17:53;15.47;;;12.47;;
15616;SDS011;7908;51.688;7.130;2023-02-22T12:20:28;18.13;;;13.90;;
15616;SDS011;7908;51.688;7.130;2023-02-22T12:23:06;17.20;;;12.87;;
15616;SDS011;7908;51.688;7.130;2023-02-22T12:25:48;14.90;;;12.50;;
15616;SDS011;7908;51.688;7.130;2023-02-22T12:28:31;17.73;;;12.80;;
15616;SDS011;7908;51.688;7.130;2023-02-22T12:31:05;16.33;;;13.07;;
15616;SDS011;7908;51.688;7.130;2023-02-22T12:33:45;20.87;;;13.10;;
15616;SDS011;7908;51.688;7.130;2023-02-22T12:36:20;17.20;;;12.50;;
15616;SDS011;7908;51.688;7.130;2023-02-22T12:38:58;17.27;;;12.30;;
15616;SDS011;7908;51.688;7.130;2023-02-22T12:41:34;17.87;;;13.30;;
15616;SDS011;7908;51.688;7.130;2023-02-22T12:44:08;20.03;;;15.20;;
15616;SDS011;7908;51.688;7.130;2023-02-22T12:46:45;20.70;;;14.97;;
15616;SDS011;7908;51.688;7.130;2023-02-22T12:49:18;18.07;;;12.23;;
15616;SDS011;7908;51.688;7.130;2023-02-22T12:51:54;17.27;;;12.17;;
15616;SDS011;7908;51.688;7.130;2023-02-22T12:54:47;17.40;;;12.87;;
15616;SDS011;7908;51.688;7.130;2023-02-22T12:57:23;19.20;;;12.57;;
15616;SDS011;7908;51.688;7.130;2023-02-22T13:00:00;16.30;;;11.87;;
15616;SDS011;7908;51.688;7.130;2023-02-22T13:02:34;18.13;;;12.00;;
15616;SDS011;7908;51.688;7.130;2023-02-22T13:05:11;14.77;;;11.07;;
15616;SDS011;7908;51.688;7.130;2023-02-22T13:07:45;16.03;;;10.50;;
15616;SDS011;7908;51.688;7.130;2023-02-22T13:10:23;15.47;;;10.47;;
15616;SDS011;7908;51.688;7.130;2023-02-22T13:13:03;16.00;;;10.17;;
15616;SDS011;7908;51.688;7.130;2023-02-22T13:15:44;16.00;;;11.03;;
15616;SDS011;7908;51.688;7.130;2023-02-22T13:18:21;17.27;;;10.27;;
15616;SDS011;7908;51.688;7.130;2023-02-22T13:20:58;14.87;;;10.40;;
15616;SDS011;7908;51.688;7.130;2023-02-22T13:23:35;14.27;;;10.07;;
15616;SDS011;7908;51.688;7.130;2023-02-22T13:26:10;12.70;;;9.40;;
15616;SDS011;7908;51.688;7.130;2023-02-22T13:28:46;16.00;;;10.97;;
15616;SDS011;7908;51.688;7.130;2023-02-22T13:31:38;14.73;;;10.57;;
15616;SDS011;7908;51.688;7.130;2023-02-22T13:34:37;12.53;;;9.07;;
15616;SDS011;7908;51.688;7.130;2023-02-22T13:37:23;12.60;;;8.93;;
15616;SDS011;7908;51.688;7.130;2023-02-22T13:43:02;14.57;;;8.87;;
15616;SDS011;7908;51.688;7.130;2023-02-22T13:48:54;15.23;;;9.60;;
15616;SDS011;7908;51.688;7.130;2023-02-22T13:51:56;10.53;;;8.67;;
15616;SDS011;7908;51.688;7.130;2023-02-22T13:54:28;13.43;;;8.80;;
15616;SDS011;7908;51.688;7.130;2023-02-22T13:57:04;12.77;;;8.17;;
15616;SDS011;7908;51.688;7.130;2023-02-22T13:59:46;10.63;;;8.40;;
15616;SDS011;7908;51.688;7.130;2023-02-22T14:14:09;12.83;;;8.77;;
15616;SDS011;7908;51.688;7.130;2023-02-22T14:16:40;10.67;;;7.87;;
15616;SDS011;7908;51.688;7.130;2023-02-22T14:19:13;13.93;;;8.40;;
15616;SDS011;7908;51.688;7.130;2023-02-22T14:21:57;13.00;;;8.47;;
15616;SDS011;7908;51.688;7.130;2023-02-22T14:24:28;10.60;;;8.17;;
15616;SDS011;7908;51.688;7.130;2023-02-22T14:27:10;11.10;;;7.60;;
15616;SDS011;7908;51.688;7.130;2023-02-22T14:29:47;8.80;;;7.00;;
15616;SDS011;7908;51.688;7.130;2023-02-22T14:32:20;11.17;;;6.80;;
15616;SDS011;7908;51.688;7.130;2023-02-22T14:34:59;11.00;;;7.40;;
15616;SDS011;7908;51.688;7.130;2023-02-22T14:37:49;10.23;;;6.97;;
15616;SDS011;7908;51.688;7.130;2023-02-22T14:40:22;11.57;;;6.80;;
15616;SDS011;7908;51.688;7.130;2023-02-22T14:42:57;11.93;;;6.17;;
15616;SDS011;7908;51.688;7.130;2023-02-22T14:45:32;9.53;;;6.13;;
15616;SDS011;7908;51.688;7.130;2023-02-22T14:48:03;9.70;;;5.93;;
15616;SDS011;7908;51.688;7.130;2023-02-22T14:50:41;12.50;;;6.67;;
15616;SDS011;7908;51.688;7.130;2023-02-22T14:53:21;8.87;;;6.20;;
15616;SDS011;7908;51.688;7.130;2023-02-22T14:55:55;8.10;;;5.80;;
15616;SDS011;7908;51.688;7.130;2023-02-22T14:58:33;9.23;;;6.00;;
15616;SDS011;7908;51.688;7.130;2023-02-22T15:01:21;11.80;;;5.23;;
15616;SDS011;7908;51.688;7.130;2023-02-22T15:04:15;10.57;;;5.10;;
15616;SDS011;7908;51.688;7.130;2023-02-22T15:06:45;7.83;;;5.10;;
15616;SDS011;7908;51.688;7.130;2023-02-22T15:09:17;11.00;;;5.77;;
15616;SDS011;7908;51.688;7.130;2023-02-22T15:12:12;9.20;;;5.77;;
15616;SDS011;7908;51.688;7.130;2023-02-22T15:15:00;12.87;;;5.43;;
15616;SDS011;7908;51.688;7.130;2023-02-22T15:17:40;10.97;;;5.97;;
15616;SDS011;7908;51.688;7.130;2023-02-22T15:20:12;9.37;;;5.60;;
15616;SDS011;7908;51.688;7.130;2023-02-22T15:22:46;11.53;;;6.27;;
15616;SDS011;7908;51.688;7.130;2023-02-22T15:25:18;7.23;;;5.30;;
15616;SDS011;7908;51.688;7.130;2023-02-22T15:27:52;6.50;;;5.00;;
15616;SDS011;7908;51.688;7.130;2023-02-22T15:30:29;8.70;;;5.43;;